sensor_id;sensor_type;location;lat;lon;timestamp;P1;durP1;ratioP1;P2;durP2;ratioP2
21480;SDS011;10902;48.158;8.634;2023-06-26T00:01:19;11.38;;;7.50;;
21480;SDS011;10902;48.158;8.634;2023-06-26T00:04:06;10.05;;;7.53;;
21480;SDS011;10902;48.158;8.634;2023-06-26T00:06:52;10.70;;;8.50;;
21480;SDS011;10902;48.158;8.634;2023-06-26T00:09:38;12.13;;;7.88;;
21480;SDS011;10902;48.158;8.634;2023-06-26T00:12:24;11.00;;;7.82;;
21480;SDS011;10902;48.158;8.634;2023-06-26T00:15:10;10.18;;;8.10;;
21480;SDS011;10902;48.158;8.634;2023-06-26T00:17:56;11.13;;;8.02;;
21480;SDS011;10902;48.158;8.634;2023-06-26T00:20:41;10.85;;;8.10;;
21480;SDS011;10902;48.158;8.634;2023-06-26T00:23:27;10.25;;;8.15;;
21480;SDS011;10902;48.158;8.634;2023-06-26T00:26:16;11.40;;;8.35;;
21480;SDS011;10902;48.158;8.634;2023-06-26T00:29:02;11.48;;;9.02;;
21480;SDS011;10902;48.158;8.634;2023-06-26T00:31:47;11.18;;;8.38;;
21480;SDS011;10902;48.158;8.634;2023-06-26T00:34:34;11.68;;;7.85;;
21480;SDS011;10902;48.158;8.634;2023-06-26T00:37:23;12.60;;;8.00;;
21480;SDS011;10902;48.158;8.634;2023-06-26T00:40:09;11.30;;;8.70;;
21480;SDS011;10902;48.158;8.634;2023-06-26T00:42:55;10.38;;;8.38;;
21480;SDS011;10902;48.158;8.634;2023-06-26T00:45:41;10.75;;;8.50;;
21480;SDS011;10902;48.158;8.634;2023-06-26T00:48:27;10.65;;;8.32;;
21480;SDS011;10902;48.158;8.634;2023-06-26T00:51:13;10.63;;;8.25;;
21480;SDS011;10902;48.158;8.634;2023-06-26T00:53:59;11.35;;;8.48;;
21480;SDS011;10902;48.158;8.634;2023-06-26T00:56:46;12.45;;;8.77;;
21480;SDS011;10902;48.158;8.634;2023-06-26T00:59:35;11.50;;;8.85;;
21480;SDS011;10902;48.158;8.634;2023-06-26T01:02:21;10.45;;;8.70;;
21480;SDS011;10902;48.158;8.634;2023-06-26T01:05:07;13.25;;;9.07;;
21480;SDS011;10902;48.158;8.634;2023-06-26T01:07:57;12.18;;;8.07;;
21480;SDS011;10902;48.158;8.634;2023-06-26T01:10:43;12.48;;;8.73;;
21480;SDS011;10902;48.158;8.634;2023-06-26T01:13:30;11.90;;;9.15;;
21480;SDS011;10902;48.158;8.634;2023-06-26T01:16:16;10.80;;;8.43;;
21480;SDS011;10902;48.158;8.634;2023-06-26T01:19:09;9.77;;;7.20;;
21480;SDS011;10902;48.158;8.634;2023-06-26T01:22:10;11.98;;;8.15;;
21480;SDS011;10902;48.158;8.634;2023-06-26T01:25:22;9.90;;;7.85;;
21480;SDS011;10902;48.158;8.634;2023-06-26T01:28:33;11.25;;;8.20;;
21480;SDS011;10902;48.158;8.634;2023-06-26T01:31:20;11.55;;;8.60;;
21480;SDS011;10902;48.158;8.634;2023-06-26T01:34:07;13.32;;;9.25;;
21480;SDS011;10902;48.158;8.634;2023-06-26T01:36:53;12.57;;;8.75;;
21480;SDS011;10902;48.158;8.634;2023-06-26T01:39:40;11.00;;;8.27;;
21480;SDS011;10902;48.158;8.634;2023-06-26T01:42:26;12.68;;;8.43;;
21480;SDS011;10902;48.158;8.634;2023-06-26T01:45:14;10.98;;;8.65;;
21480;SDS011;10902;48.158;8.634;2023-06-26T01:48:09;11.75;;;8.90;;
21480;SDS011;10902;48.158;8.634;2023-06-26T01:51:01;12.63;;;8.77;;
21480;SDS011;10902;48.158;8.634;2023-06-26T01:53:49;11.55;;;9.02;;
21480;SDS011;10902;48.158;8.634;2023-06-26T01:56:40;11.13;;;8.95;;
21480;SDS011;10902;48.158;8.634;2023-06-26T01:59:28;11.88;;;8.75;;
21480;SDS011;10902;48.158;8.634;2023-06-26T02:02:17;11.73;;;9.52;;
21480;SDS011;10902;48.158;8.634;2023-06-26T02:05:04;11.93;;;8.63;;
21480;SDS011;10902;48.158;8.634;2023-06-26T02:07:50;11.95;;;8.43;;
21480;SDS011;10902;48.158;8.634;2023-06-26T02:10:36;11.35;;;8.68;;
21480;SDS011;10902;48.158;8.634;2023-06-26T02:13:22;11.13;;;8.98;;
21480;SDS011;10902;48.158;8.634;2023-06-26T02:16:08;11.95;;;8.88;;
21480;SDS011;10902;48.158;8.634;2023-06-26T02:18:54;11.73;;;9.43;;
21480;SDS011;10902;48.158;8.634;2023-06-26T02:21:40;11.43;;;9.13;;
21480;SDS011;10902;48.158;8.634;2023-06-26T02:24:26;11.63;;;8.77;;
21480;SDS011;10902;48.158;8.634;2023-06-26T02:27:15;12.75;;;8.80;;
21480;SDS011;10902;48.158;8.634;2023-06-26T02:30:01;10.95;;;8.27;;
21480;SDS011;10902;48.158;8.634;2023-06-26T02:32:47;12.00;;;8.85;;
21480;SDS011;10902;48.158;8.634;2023-06-26T02:35:33;10.90;;;8.90;;
21480;SDS011;10902;48.158;8.634;2023-06-26T02:38:19;10.98;;;8.52;;
21480;SDS011;10902;48.158;8.634;2023-06-26T02:41:05;11.70;;;9.20;;
21480;SDS011;10902;48.158;8.634;2023-06-26T02:43:51;10.75;;;8.52;;
21480;SDS011;10902;48.158;8.634;2023-06-26T02:46:37;13.27;;;9.23;;
21480;SDS011;10902;48.158;8.634;2023-06-26T02:49:25;13.50;;;9.10;;
21480;SDS011;10902;48.158;8.634;2023-06-26T02:52:11;11.52;;;8.82;;
21480;SDS011;10902;48.158;8.634;2023-06-26T02:54:57;13.02;;;9.60;;
21480;SDS011;10902;48.158;8.634;2023-06-26T02:57:43;11.80;;;9.35;;
21480;SDS011;10902;48.158;8.634;2023-06-26T03:00:29;12.20;;;9.55;;
21480;SDS011;10902;48.158;8.634;2023-06-26T03:03:15;13.25;;;10.13;;
21480;SDS011;10902;48.158;8.634;2023-06-26T03:06:01;14.35;;;9.90;;
21480;SDS011;10902;48.158;8.634;2023-06-26T03:08:47;12.35;;;9.68;;
21480;SDS011;10902;48.158;8.634;2023-06-26T03:11:33;12.98;;;9.82;;
21480;SDS011;10902;48.158;8.634;2023-06-26T03:14:18;14.40;;;9.43;;
21480;SDS011;10902;48.158;8.634;2023-06-26T03:17:04;13.35;;;9.98;;
21480;SDS011;10902;48.158;8.634;2023-06-26T03:19:52;11.20;;;8.75;;
21480;SDS011;10902;48.158;8.634;2023-06-26T03:22:38;12.32;;;9.90;;
21480;SDS011;10902;48.158;8.634;2023-06-26T03:25:24;11.60;;;8.88;;
21480;SDS011;10902;48.158;8.634;2023-06-26T03:28:10;13.05;;;9.32;;
21480;SDS011;10902;48.158;8.634;2023-06-26T03:30:55;11.30;;;8.90;;
21480;SDS011;10902;48.158;8.634;2023-06-26T03:33:41;12.00;;;8.77;;
21480;SDS011;10902;48.158;8.634;2023-06-26T03:36:27;12.43;;;8.88;;
21480;SDS011;10902;48.158;8.634;2023-06-26T03:39:13;12.30;;;9.13;;
21480;SDS011;10902;48.158;8.634;2023-06-26T03:41:59;12.07;;;8.68;;
21480;SDS011;10902;48.158;8.634;2023-06-26T03:44:46;13.25;;;9.68;;
21480;SDS011;10902;48.158;8.634;2023-06-26T03:47:32;11.93;;;9.55;;
21480;SDS011;10902;48.158;8.634;2023-06-26T03:50:18;13.30;;;8.98;;
21480;SDS011;10902;48.158;8.634;2023-06-26T03:53:05;13.60;;;9.63;;
21480;SDS011;10902;48.158;8.634;2023-06-26T03:55:51;12.63;;;8.93;;
21480;SDS011;10902;48.158;8.634;2023-06-26T03:58:37;13.73;;;8.88;;
21480;SDS011;10902;48.158;8.634;2023-06-26T04:01:23;13.70;;;9.20;;
21480;SDS011;10902;48.158;8.634;2023-06-26T04:04:09;11.93;;;8.90;;
21480;SDS011;10902;48.158;8.634;2023-06-26T04:06:55;13.07;;;9.43;;
21480;SDS011;10902;48.158;8.634;2023-06-26T04:09:41;13.73;;;9.35;;
21480;SDS011;10902;48.158;8.634;2023-06-26T04:12:27;11.45;;;9.30;;
21480;SDS011;10902;48.158;8.634;2023-06-26T04:15:13;12.55;;;9.25;;
21480;SDS011;10902;48.158;8.634;2023-06-26T04:17:59;12.70;;;9.05;;
21480;SDS011;10902;48.158;8.634;2023-06-26T04:21:03;11.77;;;8.75;;
21480;SDS011;10902;48.158;8.634;2023-06-26T04:23:58;12.15;;;8.80;;
21480;SDS011;10902;48.158;8.634;2023-06-26T04:26:44;13.10;;;10.05;;
21480;SDS011;10902;48.158;8.634;2023-06-26T04:29:30;13.00;;;8.82;;
21480;SDS011;10902;48.158;8.634;2023-06-26T04:32:16;12.32;;;9.63;;
21480;SDS011;10902;48.158;8.634;2023-06-26T04:35:02;12.10;;;9.43;;
21480;SDS011;10902;48.158;8.634;2023-06-26T04:37:48;12.82;;;9.43;;
21480;SDS011;10902;48.158;8.634;2023-06-26T04:40:34;14.10;;;9.55;;
21480;SDS011;10902;48.158;8.634;2023-06-26T04:43:20;13.60;;;9.77;;
21480;SDS011;10902;48.158;8.634;2023-06-26T04:46:06;12.15;;;9.65;;
21480;SDS011;10902;48.158;8.634;2023-06-26T04:48:52;13.00;;;9.43;;
21480;SDS011;10902;48.158;8.634;2023-06-26T04:51:38;13.15;;;9.50;;
21480;SDS011;10902;48.158;8.634;2023-06-26T04:54:25;14.68;;;9.93;;
21480;SDS011;10902;48.158;8.634;2023-06-26T04:57:13;14.73;;;9.68;;
21480;SDS011;10902;48.158;8.634;2023-06-26T05:00:00;11.55;;;9.45;;
21480;SDS011;10902;48.158;8.634;2023-06-26T05:02:46;12.77;;;10.15;;
21480;SDS011;10902;48.158;8.634;2023-06-26T05:05:32;13.70;;;9.70;;
21480;SDS011;10902;48.158;8.634;2023-06-26T05:08:20;12.15;;;9.45;;
21480;SDS011;10902;48.158;8.634;2023-06-26T05:11:07;12.55;;;9.02;;
21480;SDS011;10902;48.158;8.634;2023-06-26T05:13:53;16.92;;;9.48;;
21480;SDS011;10902;48.158;8.634;2023-06-26T05:16:38;12.10;;;9.63;;
21480;SDS011;10902;48.158;8.634;2023-06-26T05:19:25;12.38;;;8.70;;
21480;SDS011;10902;48.158;8.634;2023-06-26T05:22:12;12.57;;;9.05;;
21480;SDS011;10902;48.158;8.634;2023-06-26T05:24:59;11.95;;;8.75;;
21480;SDS011;10902;48.158;8.634;2023-06-26T05:27:46;11.40;;;8.65;;
21480;SDS011;10902;48.158;8.634;2023-06-26T05:30:32;12.07;;;8.75;;
21480;SDS011;10902;48.158;8.634;2023-06-26T05:33:21;11.65;;;8.82;;
21480;SDS011;10902;48.158;8.634;2023-06-26T05:36:09;12.90;;;8.52;;
21480;SDS011;10902;48.158;8.634;2023-06-26T05:38:59;13.82;;;9.27;;
21480;SDS011;10902;48.158;8.634;2023-06-26T05:41:45;13.82;;;9.25;;
21480;SDS011;10902;48.158;8.634;2023-06-26T05:44:31;17.27;;;9.75;;
21480;SDS011;10902;48.158;8.634;2023-06-26T05:47:17;14.27;;;9.77;;
21480;SDS011;10902;48.158;8.634;2023-06-26T05:50:03;14.32;;;8.73;;
21480;SDS011;10902;48.158;8.634;2023-06-26T05:52:50;12.82;;;9.07;;
21480;SDS011;10902;48.158;8.634;2023-06-26T05:55:36;10.45;;;7.93;;
21480;SDS011;10902;48.158;8.634;2023-06-26T05:58:23;13.75;;;8.45;;
21480;SDS011;10902;48.158;8.634;2023-06-26T06:01:12;15.20;;;8.60;;
21480;SDS011;10902;48.158;8.634;2023-06-26T06:03:58;14.18;;;9.18;;
21480;SDS011;10902;48.158;8.634;2023-06-26T06:06:44;13.07;;;9.25;;
21480;SDS011;10902;48.158;8.634;2023-06-26T06:09:30;16.00;;;9.05;;
21480;SDS011;10902;48.158;8.634;2023-06-26T06:12:16;15.57;;;9.38;;
21480;SDS011;10902;48.158;8.634;2023-06-26T06:15:06;14.52;;;9.35;;
21480;SDS011;10902;48.158;8.634;2023-06-26T06:17:52;14.32;;;8.75;;
21480;SDS011;10902;48.158;8.634;2023-06-26T06:20:38;13.93;;;8.93;;
21480;SDS011;10902;48.158;8.634;2023-06-26T06:23:24;13.13;;;7.60;;
21480;SDS011;10902;48.158;8.634;2023-06-26T06:26:10;13.25;;;7.47;;
21480;SDS011;10902;48.158;8.634;2023-06-26T06:28:56;11.80;;;8.13;;
21480;SDS011;10902;48.158;8.634;2023-06-26T06:31:42;13.75;;;8.05;;
21480;SDS011;10902;48.158;8.634;2023-06-26T06:34:28;14.77;;;7.72;;
21480;SDS011;10902;48.158;8.634;2023-06-26T06:37:14;13.15;;;7.32;;
21480;SDS011;10902;48.158;8.634;2023-06-26T06:40:00;10.20;;;7.20;;
21480;SDS011;10902;48.158;8.634;2023-06-26T06:42:46;9.80;;;6.57;;
21480;SDS011;10902;48.158;8.634;2023-06-26T06:45:31;10.32;;;6.60;;
21480;SDS011;10902;48.158;8.634;2023-06-26T06:48:17;11.90;;;6.63;;
21480;SDS011;10902;48.158;8.634;2023-06-26T06:51:03;9.23;;;6.57;;
21480;SDS011;10902;48.158;8.634;2023-06-26T06:53:49;9.38;;;6.28;;
21480;SDS011;10902;48.158;8.634;2023-06-26T06:56:35;8.45;;;6.10;;
21480;SDS011;10902;48.158;8.634;2023-06-26T06:59:21;10.02;;;6.03;;
21480;SDS011;10902;48.158;8.634;2023-06-26T07:02:07;8.93;;;6.00;;
21480;SDS011;10902;48.158;8.634;2023-06-26T07:04:53;10.18;;;6.10;;
21480;SDS011;10902;48.158;8.634;2023-06-26T07:07:39;7.88;;;5.90;;
21480;SDS011;10902;48.158;8.634;2023-06-26T07:10:25;7.97;;;5.72;;
21480;SDS011;10902;48.158;8.634;2023-06-26T07:13:11;10.23;;;6.28;;
21480;SDS011;10902;48.158;8.634;2023-06-26T07:15:57;9.43;;;6.32;;
21480;SDS011;10902;48.158;8.634;2023-06-26T07:18:43;11.55;;;6.32;;
21480;SDS011;10902;48.158;8.634;2023-06-26T07:21:29;9.13;;;5.88;;
21480;SDS011;10902;48.158;8.634;2023-06-26T07:24:15;10.32;;;6.47;;
21480;SDS011;10902;48.158;8.634;2023-06-26T07:27:00;8.57;;;6.00;;
21480;SDS011;10902;48.158;8.634;2023-06-26T07:29:46;11.00;;;5.55;;
21480;SDS011;10902;48.158;8.634;2023-06-26T07:32:32;9.43;;;6.53;;
21480;SDS011;10902;48.158;8.634;2023-06-26T07:35:18;9.13;;;5.60;;
21480;SDS011;10902;48.158;8.634;2023-06-26T07:38:07;9.02;;;6.13;;
21480;SDS011;10902;48.158;8.634;2023-06-26T07:40:53;10.48;;;5.82;;
21480;SDS011;10902;48.158;8.634;2023-06-26T07:43:39;9.02;;;5.97;;
21480;SDS011;10902;48.158;8.634;2023-06-26T07:46:25;10.55;;;6.40;;
21480;SDS011;10902;48.158;8.634;2023-06-26T07:49:11;7.35;;;5.57;;
21480;SDS011;10902;48.158;8.634;2023-06-26T07:51:57;8.07;;;5.75;;
21480;SDS011;10902;48.158;8.634;2023-06-26T07:54:43;8.68;;;5.93;;
21480;SDS011;10902;48.158;8.634;2023-06-26T07:57:29;7.63;;;6.22;;
21480;SDS011;10902;48.158;8.634;2023-06-26T08:00:16;8.25;;;6.03;;
21480;SDS011;10902;48.158;8.634;2023-06-26T08:03:02;8.05;;;6.05;;
21480;SDS011;10902;48.158;8.634;2023-06-26T08:05:49;7.75;;;5.50;;
21480;SDS011;10902;48.158;8.634;2023-06-26T08:08:35;7.43;;;5.63;;
21480;SDS011;10902;48.158;8.634;2023-06-26T08:11:21;7.05;;;5.03;;
21480;SDS011;10902;48.158;8.634;2023-06-26T08:14:07;7.88;;;5.60;;
21480;SDS011;10902;48.158;8.634;2023-06-26T08:16:53;8.38;;;5.10;;
21480;SDS011;10902;48.158;8.634;2023-06-26T08:19:39;10.75;;;5.07;;
21480;SDS011;10902;48.158;8.634;2023-06-26T08:22:24;6.15;;;4.57;;
21480;SDS011;10902;48.158;8.634;2023-06-26T08:25:10;6.82;;;4.80;;
21480;SDS011;10902;48.158;8.634;2023-06-26T08:27:56;6.57;;;4.53;;
21480;SDS011;10902;48.158;8.634;2023-06-26T08:30:42;8.43;;;5.05;;
21480;SDS011;10902;48.158;8.634;2023-06-26T08:33:28;6.57;;;4.35;;
21480;SDS011;10902;48.158;8.634;2023-06-26T08:36:14;6.75;;;4.47;;
21480;SDS011;10902;48.158;8.634;2023-06-26T08:39:00;7.32;;;4.80;;
21480;SDS011;10902;48.158;8.634;2023-06-26T08:41:46;6.35;;;5.25;;
21480;SDS011;10902;48.158;8.634;2023-06-26T08:44:32;6.97;;;5.07;;
21480;SDS011;10902;48.158;8.634;2023-06-26T08:47:18;5.72;;;4.60;;
21480;SDS011;10902;48.158;8.634;2023-06-26T08:50:08;8.52;;;4.97;;
21480;SDS011;10902;48.158;8.634;2023-06-26T08:53:01;6.50;;;5.10;;
21480;SDS011;10902;48.158;8.634;2023-06-26T08:56:08;7.10;;;5.13;;
21480;SDS011;10902;48.158;8.634;2023-06-26T08:58:54;6.60;;;5.32;;
21480;SDS011;10902;48.158;8.634;2023-06-26T09:01:41;7.85;;;5.50;;
21480;SDS011;10902;48.158;8.634;2023-06-26T09:04:27;6.78;;;5.28;;
21480;SDS011;10902;48.158;8.634;2023-06-26T09:07:13;7.28;;;5.25;;
21480;SDS011;10902;48.158;8.634;2023-06-26T09:09:59;7.78;;;4.88;;
21480;SDS011;10902;48.158;8.634;2023-06-26T09:12:46;6.40;;;4.82;;
21480;SDS011;10902;48.158;8.634;2023-06-26T09:15:42;6.97;;;5.53;;
21480;SDS011;10902;48.158;8.634;2023-06-26T09:18:28;10.23;;;5.40;;
21480;SDS011;10902;48.158;8.634;2023-06-26T09:21:14;6.45;;;4.95;;
21480;SDS011;10902;48.158;8.634;2023-06-26T09:24:00;6.75;;;5.00;;
21480;SDS011;10902;48.158;8.634;2023-06-26T09:26:47;6.65;;;5.40;;
21480;SDS011;10902;48.158;8.634;2023-06-26T09:29:33;7.15;;;5.15;;
21480;SDS011;10902;48.158;8.634;2023-06-26T09:32:19;7.13;;;5.13;;
21480;SDS011;10902;48.158;8.634;2023-06-26T09:35:05;6.70;;;4.85;;
21480;SDS011;10902;48.158;8.634;2023-06-26T09:37:52;7.70;;;5.47;;
21480;SDS011;10902;48.158;8.634;2023-06-26T09:40:37;7.68;;;5.43;;
21480;SDS011;10902;48.158;8.634;2023-06-26T09:43:24;9.07;;;5.95;;
21480;SDS011;10902;48.158;8.634;2023-06-26T09:46:15;7.72;;;5.50;;
21480;SDS011;10902;48.158;8.634;2023-06-26T09:49:13;9.10;;;5.75;;
21480;SDS011;10902;48.158;8.634;2023-06-26T09:52:00;7.95;;;5.50;;
21480;SDS011;10902;48.158;8.634;2023-06-26T09:54:47;10.57;;;5.65;;
21480;SDS011;10902;48.158;8.634;2023-06-26T09:57:34;8.18;;;6.13;;
21480;SDS011;10902;48.158;8.634;2023-06-26T10:00:20;7.30;;;5.28;;
21480;SDS011;10902;48.158;8.634;2023-06-26T10:03:06;11.00;;;5.25;;
21480;SDS011;10902;48.158;8.634;2023-06-26T10:05:53;7.50;;;5.40;;
21480;SDS011;10902;48.158;8.634;2023-06-26T10:08:39;6.50;;;5.70;;
21480;SDS011;10902;48.158;8.634;2023-06-26T10:11:37;7.07;;;5.13;;
21480;SDS011;10902;48.158;8.634;2023-06-26T10:14:34;9.10;;;5.45;;
21480;SDS011;10902;48.158;8.634;2023-06-26T10:17:22;6.57;;;5.75;;
21480;SDS011;10902;48.158;8.634;2023-06-26T10:20:12;7.78;;;5.72;;
21480;SDS011;10902;48.158;8.634;2023-06-26T10:23:01;7.80;;;5.68;;
21480;SDS011;10902;48.158;8.634;2023-06-26T10:25:51;7.82;;;5.80;;
21480;SDS011;10902;48.158;8.634;2023-06-26T10:28:39;7.13;;;5.53;;
21480;SDS011;10902;48.158;8.634;2023-06-26T10:31:27;9.00;;;6.05;;
21480;SDS011;10902;48.158;8.634;2023-06-26T10:34:16;7.90;;;5.78;;
21480;SDS011;10902;48.158;8.634;2023-06-26T10:37:02;6.82;;;5.70;;
21480;SDS011;10902;48.158;8.634;2023-06-26T10:39:50;7.95;;;6.30;;
21480;SDS011;10902;48.158;8.634;2023-06-26T10:42:40;10.07;;;6.05;;
21480;SDS011;10902;48.158;8.634;2023-06-26T10:45:28;7.50;;;6.25;;
21480;SDS011;10902;48.158;8.634;2023-06-26T10:48:14;7.97;;;6.00;;
21480;SDS011;10902;48.158;8.634;2023-06-26T10:51:13;9.48;;;6.25;;
21480;SDS011;10902;48.158;8.634;2023-06-26T10:54:06;9.52;;;6.75;;
21480;SDS011;10902;48.158;8.634;2023-06-26T10:57:01;8.63;;;6.60;;
21480;SDS011;10902;48.158;8.634;2023-06-26T10:59:47;10.35;;;7.35;;
21480;SDS011;10902;48.158;8.634;2023-06-26T11:02:46;9.80;;;6.82;;
21480;SDS011;10902;48.158;8.634;2023-06-26T11:05:33;7.93;;;6.57;;
21480;SDS011;10902;48.158;8.634;2023-06-26T11:08:22;8.88;;;6.82;;
21480;SDS011;10902;48.158;8.634;2023-06-26T11:14:36;8.35;;;6.20;;
21480;SDS011;10902;48.158;8.634;2023-06-26T11:17:23;9.50;;;6.90;;
21480;SDS011;10902;48.158;8.634;2023-06-26T11:20:12;10.40;;;6.80;;
21480;SDS011;10902;48.158;8.634;2023-06-26T11:22:59;7.70;;;6.50;;
21480;SDS011;10902;48.158;8.634;2023-06-26T11:25:46;8.70;;;6.63;;
21480;SDS011;10902;48.158;8.634;2023-06-26T11:28:32;8.35;;;6.80;;
21480;SDS011;10902;48.158;8.634;2023-06-26T11:31:29;10.10;;;6.85;;
21480;SDS011;10902;48.158;8.634;2023-06-26T11:34:16;8.70;;;6.93;;
21480;SDS011;10902;48.158;8.634;2023-06-26T11:37:05;9.07;;;6.72;;
21480;SDS011;10902;48.158;8.634;2023-06-26T11:39:54;8.85;;;7.00;;
21480;SDS011;10902;48.158;8.634;2023-06-26T11:42:40;8.73;;;6.55;;
21480;SDS011;10902;48.158;8.634;2023-06-26T11:45:30;9.00;;;7.18;;
21480;SDS011;10902;48.158;8.634;2023-06-26T11:48:20;8.50;;;6.70;;
21480;SDS011;10902;48.158;8.634;2023-06-26T11:51:06;8.07;;;7.28;;
21480;SDS011;10902;48.158;8.634;2023-06-26T11:54:32;8.85;;;7.00;;
21480;SDS011;10902;48.158;8.634;2023-06-26T11:57:23;11.38;;;7.55;;
21480;SDS011;10902;48.158;8.634;2023-06-26T12:00:10;8.75;;;6.97;;
21480;SDS011;10902;48.158;8.634;2023-06-26T12:03:02;8.98;;;7.00;;
21480;SDS011;10902;48.158;8.634;2023-06-26T12:05:51;9.75;;;7.07;;
21480;SDS011;10902;48.158;8.634;2023-06-26T12:08:37;10.57;;;7.75;;
21480;SDS011;10902;48.158;8.634;2023-06-26T12:11:24;9.50;;;7.28;;
21480;SDS011;10902;48.158;8.634;2023-06-26T12:14:10;8.85;;;7.22;;
21480;SDS011;10902;48.158;8.634;2023-06-26T12:17:04;12.02;;;7.10;;
21480;SDS011;10902;48.158;8.634;2023-06-26T12:20:17;10.63;;;6.60;;
21480;SDS011;10902;48.158;8.634;2023-06-26T12:23:13;9.30;;;7.20;;
21480;SDS011;10902;48.158;8.634;2023-06-26T12:26:15;8.80;;;6.88;;
21480;SDS011;10902;48.158;8.634;2023-06-26T12:29:08;9.55;;;7.05;;
21480;SDS011;10902;48.158;8.634;2023-06-26T12:32:02;9.32;;;7.35;;
21480;SDS011;10902;48.158;8.634;2023-06-26T12:35:07;9.55;;;7.43;;
21480;SDS011;10902;48.158;8.634;2023-06-26T12:37:55;8.77;;;6.93;;
21480;SDS011;10902;48.158;8.634;2023-06-26T12:40:46;10.50;;;8.02;;
21480;SDS011;10902;48.158;8.634;2023-06-26T12:43:32;8.00;;;6.57;;
21480;SDS011;10902;48.158;8.634;2023-06-26T12:46:38;9.52;;;6.57;;
21480;SDS011;10902;48.158;8.634;2023-06-26T12:52:46;8.45;;;6.97;;
21480;SDS011;10902;48.158;8.634;2023-06-26T12:55:46;9.55;;;7.43;;
21480;SDS011;10902;48.158;8.634;2023-06-26T12:58:52;9.90;;;8.02;;
21480;SDS011;10902;48.158;8.634;2023-06-26T13:01:50;10.20;;;7.85;;
21480;SDS011;10902;48.158;8.634;2023-06-26T13:07:43;9.73;;;7.43;;
21480;SDS011;10902;48.158;8.634;2023-06-26T13:10:45;8.63;;;6.70;;
21480;SDS011;10902;48.158;8.634;2023-06-26T13:13:58;9.45;;;7.70;;
21480;SDS011;10902;48.158;8.634;2023-06-26T13:16:56;9.23;;;7.60;;
21480;SDS011;10902;48.158;8.634;2023-06-26T13:20:06;9.27;;;7.38;;
21480;SDS011;10902;48.158;8.634;2023-06-26T13:22:53;9.48;;;8.10;;
21480;SDS011;10902;48.158;8.634;2023-06-26T13:25:42;8.70;;;7.35;;
21480;SDS011;10902;48.158;8.634;2023-06-26T13:28:29;8.82;;;7.65;;
21480;SDS011;10902;48.158;8.634;2023-06-26T13:31:37;10.07;;;7.20;;
21480;SDS011;10902;48.158;8.634;2023-06-26T13:34:24;8.98;;;7.15;;
21480;SDS011;10902;48.158;8.634;2023-06-26T13:37:13;9.80;;;6.95;;
21480;SDS011;10902;48.158;8.634;2023-06-26T13:40:00;9.70;;;7.63;;
21480;SDS011;10902;48.158;8.634;2023-06-26T13:42:48;9.88;;;7.05;;
21480;SDS011;10902;48.158;8.634;2023-06-26T13:45:40;8.25;;;6.60;;
21480;SDS011;10902;48.158;8.634;2023-06-26T13:48:25;8.35;;;6.68;;
21480;SDS011;10902;48.158;8.634;2023-06-26T13:51:12;8.73;;;6.75;;
21480;SDS011;10902;48.158;8.634;2023-06-26T13:54:01;10.77;;;7.43;;
21480;SDS011;10902;48.158;8.634;2023-06-26T13:56:54;9.02;;;6.75;;
21480;SDS011;10902;48.158;8.634;2023-06-26T14:00:02;10.10;;;6.97;;
21480;SDS011;10902;48.158;8.634;2023-06-26T14:02:54;8.43;;;6.65;;
21480;SDS011;10902;48.158;8.634;2023-06-26T14:05:41;8.10;;;6.65;;
21480;SDS011;10902;48.158;8.634;2023-06-26T14:08:27;7.80;;;6.60;;
21480;SDS011;10902;48.158;8.634;2023-06-26T14:11:22;10.15;;;6.90;;
21480;SDS011;10902;48.158;8.634;2023-06-26T14:14:08;9.25;;;7.30;;
21480;SDS011;10902;48.158;8.634;2023-06-26T14:16:54;9.32;;;6.85;;
21480;SDS011;10902;48.158;8.634;2023-06-26T14:19:40;7.82;;;6.82;;
21480;SDS011;10902;48.158;8.634;2023-06-26T14:22:26;8.77;;;6.55;;
21480;SDS011;10902;48.158;8.634;2023-06-26T14:25:12;7.97;;;6.38;;
21480;SDS011;10902;48.158;8.634;2023-06-26T14:27:59;8.50;;;7.18;;
21480;SDS011;10902;48.158;8.634;2023-06-26T14:30:45;7.97;;;6.50;;
21480;SDS011;10902;48.158;8.634;2023-06-26T14:33:30;9.13;;;6.63;;
21480;SDS011;10902;48.158;8.634;2023-06-26T14:36:16;11.32;;;6.38;;
21480;SDS011;10902;48.158;8.634;2023-06-26T14:39:02;7.82;;;6.85;;
21480;SDS011;10902;48.158;8.634;2023-06-26T14:41:49;8.90;;;6.28;;
21480;SDS011;10902;48.158;8.634;2023-06-26T14:44:35;10.20;;;7.43;;
21480;SDS011;10902;48.158;8.634;2023-06-26T14:47:21;9.35;;;6.43;;
21480;SDS011;10902;48.158;8.634;2023-06-26T14:50:07;8.45;;;6.78;;
21480;SDS011;10902;48.158;8.634;2023-06-26T14:52:54;8.55;;;6.75;;
21480;SDS011;10902;48.158;8.634;2023-06-26T14:55:40;8.68;;;6.22;;
21480;SDS011;10902;48.158;8.634;2023-06-26T14:58:26;8.00;;;6.05;;
21480;SDS011;10902;48.158;8.634;2023-06-26T15:01:12;8.77;;;5.82;;
21480;SDS011;10902;48.158;8.634;2023-06-26T15:04:00;9.65;;;5.95;;
21480;SDS011;10902;48.158;8.634;2023-06-26T15:06:46;9.40;;;6.13;;
21480;SDS011;10902;48.158;8.634;2023-06-26T15:09:32;8.93;;;6.65;;
21480;SDS011;10902;48.158;8.634;2023-06-26T15:12:19;8.93;;;6.00;;
21480;SDS011;10902;48.158;8.634;2023-06-26T15:15:06;7.43;;;5.88;;
21480;SDS011;10902;48.158;8.634;2023-06-26T15:17:53;9.20;;;5.63;;
21480;SDS011;10902;48.158;8.634;2023-06-26T15:20:38;7.97;;;5.85;;
21480;SDS011;10902;48.158;8.634;2023-06-26T15:23:24;6.85;;;5.35;;
21480;SDS011;10902;48.158;8.634;2023-06-26T15:26:12;7.45;;;5.95;;
21480;SDS011;10902;48.158;8.634;2023-06-26T15:28:59;7.72;;;5.30;;
21480;SDS011;10902;48.158;8.634;2023-06-26T15:31:44;7.53;;;5.28;;
21480;SDS011;10902;48.158;8.634;2023-06-26T15:34:30;7.10;;;5.63;;
21480;SDS011;10902;48.158;8.634;2023-06-26T15:37:16;9.20;;;5.30;;
21480;SDS011;10902;48.158;8.634;2023-06-26T15:40:02;7.70;;;4.57;;
21480;SDS011;10902;48.158;8.634;2023-06-26T15:42:49;6.90;;;4.90;;
21480;SDS011;10902;48.158;8.634;2023-06-26T15:45:36;7.53;;;4.85;;
21480;SDS011;10902;48.158;8.634;2023-06-26T15:48:22;6.10;;;4.13;;
21480;SDS011;10902;48.158;8.634;2023-06-26T15:51:12;7.28;;;4.25;;
21480;SDS011;10902;48.158;8.634;2023-06-26T15:54:00;8.25;;;4.20;;
21480;SDS011;10902;48.158;8.634;2023-06-26T15:56:46;6.97;;;3.85;;
21480;SDS011;10902;48.158;8.634;2023-06-26T15:59:32;6.18;;;3.95;;
21480;SDS011;10902;48.158;8.634;2023-06-26T16:02:18;6.18;;;3.72;;
21480;SDS011;10902;48.158;8.634;2023-06-26T16:05:04;6.55;;;3.90;;
21480;SDS011;10902;48.158;8.634;2023-06-26T16:07:50;6.40;;;3.72;;
21480;SDS011;10902;48.158;8.634;2023-06-26T16:10:36;7.75;;;3.78;;
21480;SDS011;10902;48.158;8.634;2023-06-26T16:13:22;6.00;;;3.42;;
21480;SDS011;10902;48.158;8.634;2023-06-26T16:16:09;8.73;;;4.05;;
21480;SDS011;10902;48.158;8.634;2023-06-26T16:18:55;6.90;;;4.03;;
21480;SDS011;10902;48.158;8.634;2023-06-26T16:21:41;5.57;;;3.90;;
21480;SDS011;10902;48.158;8.634;2023-06-26T16:24:27;6.75;;;4.03;;
21480;SDS011;10902;48.158;8.634;2023-06-26T16:27:13;6.13;;;3.70;;
21480;SDS011;10902;48.158;8.634;2023-06-26T16:29:58;5.95;;;3.72;;
21480;SDS011;10902;48.158;8.634;2023-06-26T16:32:44;7.78;;;4.03;;
21480;SDS011;10902;48.158;8.634;2023-06-26T16:35:30;7.78;;;4.40;;
21480;SDS011;10902;48.158;8.634;2023-06-26T16:38:19;7.35;;;4.15;;
21480;SDS011;10902;48.158;8.634;2023-06-26T16:41:05;8.90;;;4.20;;
21480;SDS011;10902;48.158;8.634;2023-06-26T16:43:51;8.50;;;3.97;;
21480;SDS011;10902;48.158;8.634;2023-06-26T16:46:36;5.68;;;3.97;;
21480;SDS011;10902;48.158;8.634;2023-06-26T16:49:23;9.07;;;4.25;;
21480;SDS011;10902;48.158;8.634;2023-06-26T16:52:09;7.00;;;4.65;;
21480;SDS011;10902;48.158;8.634;2023-06-26T16:54:55;6.47;;;4.07;;